Time;durP1;ratioP1;P1;durP2;ratioP2;P2;SDS_P1;SDS_P2;PMS_P1;PMS_P2;Temp;Humidity;BMP_temperature;BMP_pressure;BME280_temperature;BME280_humidity;BME280_pressure;Samples;Min_cycle;Max_cycle;Signal;HPM_P1;HPM_P2
2024/03/19 00:00:44;;;;;;;14.15;8.93;;;6.80;99.90;;;;;;5090243;28;20119;-81
2024/03/19 00:03:31;;;;;;;11.75;8.82;;;6.80;99.90;;;;;;5101192;28;20044;-81
2024/03/19 00:06:19;;;;;;;13.48;8.73;;;6.70;99.90;;;;;;5096608;28;20043;-82
2024/03/19 00:09:07;;;;;;;10.18;7.38;;;6.60;99.90;;;;;;5088827;28;20054;-83
2024/03/19 00:11:54;;;;;;;10.15;7.68;;;6.40;99.90;;;;;;5087779;28;20044;-83
2024/03/19 00:14:40;;;;;;;9.90;7.45;;;6.30;99.90;;;;;;5088527;28;20052;-83
2024/03/19 00:17:27;;;;;;;10.18;6.95;;;6.20;99.90;;;;;;5074763;28;20062;-80
2024/03/19 00:20:17;;;;;;;8.27;7.00;;;6.00;99.90;;;;;;5074905;28;20054;-80
2024/03/19 00:23:03;;;;;;;9.43;7.70;;;5.90;99.90;;;;;;5062640;28;20100;-83
2024/03/19 00:25:51;;;;;;;9.45;7.47;;;5.90;99.90;;;;;;5076835;28;20051;-83
2024/03/19 00:28:38;;;;;;;14.60;9.85;;;5.90;99.90;;;;;;5074300;28;20092;-81
2024/03/19 00:31:28;;;;;;;16.60;11.13;;;5.90;99.90;;;;;;5074614;28;20413;-83
2024/03/19 00:34:14;;;;;;;17.25;12.23;;;6.10;99.90;;;;;;5078276;28;20047;-80
2024/03/19 00:37:01;;;;;;;22.23;13.45;;;6.00;99.90;;;;;;5074948;28;20048;-80
2024/03/19 00:39:47;;;;;;;21.80;13.25;;;6.00;99.90;;;;;;5076491;28;20412;-81
2024/03/19 00:42:33;;;;;;;19.75;13.45;;;6.00;99.90;;;;;;5076917;28;20054;-79
2024/03/19 00:45:20;;;;;;;20.50;13.52;;;6.00;99.90;;;;;;5082484;28;20040;-82
2024/03/19 00:48:06;;;;;;;19.05;13.18;;;6.00;99.90;;;;;;5078495;28;20112;-81
2024/03/19 00:50:54;;;;;;;19.83;12.25;;;6.00;99.90;;;;;;5068477;28;20047;-80
2024/03/19 00:53:42;;;;;;;16.95;11.80;;;6.00;99.90;;;;;;5093766;28;20048;-81
2024/03/19 00:56:30;;;;;;;20.13;12.45;;;5.90;99.90;;;;;;5070688;28;20051;-84
2024/03/19 00:59:17;;;;;;;21.98;12.77;;;5.80;99.90;;;;;;5073859;28;20059;-83
2024/03/19 01:02:06;;;;;;;19.70;12.98;;;5.70;99.90;;;;;;5072346;28;20040;-82
2024/03/19 01:04:54;;;;;;;19.55;12.98;;;5.70;99.90;;;;;;5060882;28;20127;-82
2024/03/19 01:07:42;;;;;;;19.35;12.73;;;5.60;99.90;;;;;;5073269;28;20055;-83
2024/03/19 01:10:29;;;;;;;17.95;13.25;;;5.50;99.90;;;;;;5059994;28;20055;-82
2024/03/19 01:13:15;;;;;;;22.67;14.15;;;5.60;99.90;;;;;;5071750;28;20116;-83
2024/03/19 01:16:04;;;;;;;19.45;14.32;;;5.60;99.90;;;;;;5085204;28;20104;-82
2024/03/19 01:18:55;;;;;;;24.98;15.20;;;5.60;99.90;;;;;;5090779;28;20039;-79
2024/03/19 01:21:43;;;;;;;24.80;15.98;;;5.70;99.90;;;;;;5099680;28;20040;-83
2024/03/19 01:24:30;;;;;;;21.95;15.82;;;5.70;99.90;;;;;;5075824;28;20043;-80
2024/03/19 01:27:18;;;;;;;22.42;14.55;;;5.60;99.90;;;;;;5098710;28;20048;-81
2024/03/19 01:30:06;;;;;;;22.33;15.38;;;5.50;99.90;;;;;;5087638;28;20052;-81
2024/03/19 01:32:53;;;;;;;20.48;14.85;;;5.40;99.90;;;;;;5059521;28;20048;-82
2024/03/19 01:35:41;;;;;;;25.67;15.95;;;5.60;99.90;;;;;;5061469;28;20048;-81
2024/03/19 01:38:28;;;;;;;24.92;15.32;;;5.60;99.90;;;;;;5071786;28;20050;-81
2024/03/19 01:41:18;;;;;;;26.55;15.68;;;5.60;99.90;;;;;;5058796;28;20044;-80
2024/03/19 01:44:07;;;;;;;25.25;15.75;;;5.50;99.90;;;;;;5058552;28;20119;-80
2024/03/19 01:46:55;;;;;;;20.27;14.77;;;5.40;99.90;;;;;;5044282;28;20435;-82
2024/03/19 01:49:43;;;;;;;22.17;13.88;;;5.40;99.90;;;;;;5086269;28;20044;-82
2024/03/19 01:52:32;;;;;;;17.83;13.30;;;5.30;99.90;;;;;;5071806;28;20050;-83
2024/03/19 01:55:24;;;;;;;21.45;14.40;;;5.20;99.90;;;;;;5059091;28;20040;-80
2024/03/19 01:58:10;;;;;;;22.75;15.02;;;5.10;99.90;;;;;;5071489;28;20044;-84
2024/03/19 02:00:57;;;;;;;23.35;15.27;;;5.10;99.90;;;;;;5087075;28;20048;-81
2024/03/19 02:03:45;;;;;;;28.33;16.83;;;4.90;99.90;;;;;;5085541;28;20048;-82
2024/03/19 02:06:31;;;;;;;23.63;15.40;;;4.90;99.90;;;;;;5089537;28;20542;-81
2024/03/19 02:09:18;;;;;;;27.85;15.80;;;4.80;99.90;;;;;;5094480;28;20048;-82
2024/03/19 02:12:07;;;;;;;25.88;16.85;;;4.90;99.90;;;;;;5085450;28;20044;-82
2024/03/19 02:14:54;;;;;;;31.17;19.00;;;5.00;99.90;;;;;;5072142;28;20040;-81
2024/03/19 02:17:41;;;;;;;30.80;20.00;;;5.10;99.90;;;;;;5073683;28;20043;-82
2024/03/19 02:20:30;;;;;;;29.92;18.75;;;5.30;99.90;;;;;;5074246;28;20105;-82
2024/03/19 02:23:17;;;;;;;26.65;18.13;;;5.40;99.90;;;;;;5071982;28;20693;-81
2024/03/19 02:26:03;;;;;;;33.50;20.17;;;5.40;99.90;;;;;;5072883;28;20043;-82
2024/03/19 02:28:51;;;;;;;32.22;18.88;;;5.50;99.90;;;;;;5073239;28;20062;-81
2024/03/19 02:31:38;;;;;;;27.55;17.02;;;5.40;99.90;;;;;;5073468;28;20527;-83
2024/03/19 02:34:24;;;;;;;29.08;17.50;;;5.30;99.90;;;;;;5073919;28;20409;-81
2024/03/19 02:37:10;;;;;;;25.60;16.23;;;5.30;99.90;;;;;;5055719;28;20044;-83
2024/03/19 02:39:59;;;;;;;27.33;15.82;;;5.10;99.90;;;;;;5073795;28;20497;-82
2024/03/19 02:42:45;;;;;;;25.90;16.48;;;5.00;99.90;;;;;;5072308;28;20051;-82
2024/03/19 02:45:32;;;;;;;30.08;15.98;;;4.80;99.90;;;;;;5067508;28;20127;-83
2024/03/19 02:48:19;;;;;;;25.40;15.38;;;4.80;99.90;;;;;;5082178;28;20495;-83
2024/03/19 02:51:09;;;;;;;26.23;16.27;;;4.80;99.90;;;;;;5073174;28;20070;-81
2024/03/19 02:53:56;;;;;;;22.77;15.40;;;4.80;99.90;;;;;;5069698;28;20051;-81
2024/03/19 02:56:43;;;;;;;23.33;15.45;;;4.70;99.90;;;;;;5066706;28;20048;-81
2024/03/19 02:59:30;;;;;;;26.02;15.25;;;4.60;99.90;;;;;;5075410;28;20082;-82
2024/03/19 03:02:17;;;;;;;24.02;15.20;;;4.50;99.90;;;;;;5077607;28;20203;-82
2024/03/19 03:05:05;;;;;;;26.20;16.95;;;4.50;99.90;;;;;;5091254;28;20044;-82
2024/03/19 03:07:51;;;;;;;33.17;18.80;;;4.50;99.90;;;;;;5083497;28;20508;-81
2024/03/19 03:10:40;;;;;;;29.17;16.52;;;4.50;99.90;;;;;;5081069;28;20052;-83
2024/03/19 03:13:29;;;;;;;26.10;15.88;;;4.60;99.90;;;;;;5069633;28;20048;-82
2024/03/19 03:16:15;;;;;;;25.73;15.52;;;4.50;99.90;;;;;;5095847;28;20420;-80
2024/03/19 03:19:03;;;;;;;30.00;16.52;;;4.60;99.90;;;;;;5067654;28;20044;-83
2024/03/19 03:21:49;;;;;;;25.55;15.98;;;4.60;99.90;;;;;;5091123;28;20077;-84
2024/03/19 03:24:35;;;;;;;27.52;16.15;;;4.70;99.90;;;;;;5089515;28;20024;-81
2024/03/19 03:27:24;;;;;;;26.75;15.57;;;4.70;99.90;;;;;;5099859;28;20020;-79
2024/03/19 03:30:15;;;;;;;24.20;15.45;;;4.50;99.90;;;;;;5096518;28;20055;-79
2024/03/19 03:33:01;;;;;;;23.40;13.90;;;4.40;99.90;;;;;;5083474;28;20409;-83
2024/03/19 03:35:48;;;;;;;24.20;15.65;;;4.30;99.90;;;;;;5070501;28;20062;-81
2024/03/19 03:38:35;;;;;;;27.00;15.27;;;4.30;99.90;;;;;;5090298;28;20040;-84
2024/03/19 03:41:24;;;;;;;23.75;13.95;;;4.40;99.90;;;;;;5084094;28;20073;-82
2024/03/19 03:44:11;;;;;;;28.08;14.18;;;4.40;99.90;;;;;;5090302;28;20032;-81
2024/03/19 03:46:57;;;;;;;22.77;14.20;;;4.30;99.90;;;;;;5077713;28;20092;-83
2024/03/19 03:49:47;;;;;;;25.08;15.10;;;4.30;99.90;;;;;;5077316;28;20518;-81
2024/03/19 03:52:34;;;;;;;21.80;14.35;;;4.30;99.90;;;;;;5062276;28;20036;-83
2024/03/19 03:55:22;;;;;;;22.70;14.15;;;4.30;99.90;;;;;;5106308;28;20038;-82
2024/03/19 03:58:09;;;;;;;22.42;14.00;;;4.10;99.90;;;;;;5086038;28;20398;-79
2024/03/19 04:00:58;;;;;;;23.48;14.15;;;4.00;99.90;;;;;;5062431;28;20036;-83
2024/03/19 04:03:46;;;;;;;22.10;14.40;;;4.00;99.90;;;;;;5090998;28;20048;-81
2024/03/19 04:06:33;;;;;;;20.77;13.77;;;3.90;99.90;;;;;;5098130;28;20036;-82
2024/03/19 04:09:20;;;;;;;21.38;13.05;;;4.00;99.90;;;;;;5083942;28;20618;-83
2024/03/19 04:12:06;;;;;;;20.92;13.30;;;3.90;99.90;;;;;;5090709;28;20099;-83
2024/03/19 04:14:52;;;;;;;26.95;15.13;;;3.80;99.90;;;;;;5099645;28;20051;-83
2024/03/19 04:17:40;;;;;;;26.50;15.60;;;3.80;99.90;;;;;;5076285;28;20048;-82
2024/03/19 04:20:28;;;;;;;20.30;13.40;;;3.70;99.90;;;;;;5078904;28;20074;-81
2024/03/19 04:23:14;;;;;;;26.75;14.73;;;3.60;99.90;;;;;;5101610;28;20044;-82
2024/03/19 04:26:01;;;;;;;25.25;14.73;;;3.60;99.90;;;;;;5090212;28;20040;-80
2024/03/19 04:28:49;;;;;;;24.17;15.35;;;3.70;99.90;;;;;;5047085;28;20054;-82
2024/03/19 04:31:37;;;;;;;25.55;15.55;;;3.80;99.90;;;;;;5063635;28;20048;-83
2024/03/19 04:34:26;;;;;;;28.23;16.35;;;3.80;99.90;;;;;;5063200;28;20058;-84
2024/03/19 04:37:13;;;;;;;28.05;17.13;;;3.90;99.90;;;;;;5076444;28;20050;-82
2024/03/19 04:39:59;;;;;;;28.50;17.15;;;3.90;99.90;;;;;;5084813;28;20048;-82
2024/03/19 04:42:46;;;;;;;28.38;16.73;;;3.90;99.90;;;;;;5062791;28;20638;-84
2024/03/19 04:45:32;;;;;;;29.08;17.30;;;3.80;99.90;;;;;;5083854;28;20051;-82
2024/03/19 04:48:21;;;;;;;32.58;18.45;;;3.70;99.90;;;;;;5085715;28;20513;-82
2024/03/19 04:51:08;;;;;;;33.88;17.65;;;3.80;99.90;;;;;;5075649;28;20048;-82
2024/03/19 04:53:54;;;;;;;32.10;17.75;;;3.80;99.90;;;;;;5085363;28;20048;-83
2024/03/19 04:56:42;;;;;;;28.10;17.45;;;3.70;99.90;;;;;;5087607;28;20257;-84
2024/03/19 04:59:30;;;;;;;30.00;17.50;;;3.60;99.90;;;;;;5071910;28;20054;-82
2024/03/19 05:02:17;;;;;;;36.28;20.77;;;3.60;99.90;;;;;;5076736;28;20046;-84
2024/03/19 05:05:03;;;;;;;41.17;22.45;;;3.60;99.90;;;;;;5093038;28;20051;-84
2024/03/19 05:07:49;;;;;;;35.90;19.13;;;3.60;99.90;;;;;;5077228;28;20040;-84
2024/03/19 05:10:36;;;;;;;31.42;18.77;;;3.80;99.90;;;;;;5074940;28;20040;-84
2024/03/19 05:13:24;;;;;;;26.70;15.23;;;3.90;99.90;;;;;;5075960;28;20050;-83
2024/03/19 05:16:12;;;;;;;31.90;16.25;;;3.80;99.90;;;;;;5087581;28;20066;-84
2024/03/19 05:18:58;;;;;;;24.73;15.45;;;3.70;99.90;;;;;;5088352;28;20051;-82
2024/03/19 05:21:45;;;;;;;29.83;17.77;;;3.60;99.90;;;;;;5067220;28;20477;-85
2024/03/19 05:24:33;;;;;;;37.10;20.35;;;3.70;99.90;;;;;;5085205;28;20051;-83
2024/03/19 05:27:23;;;;;;;42.83;21.98;;;3.90;99.90;;;;;;5094040;28;20050;-82
2024/03/19 05:30:13;;;;;;;37.08;20.98;;;4.10;99.90;;;;;;5077961;28;20428;-83
2024/03/19 05:32:59;;;;;;;46.72;24.20;;;4.10;99.90;;;;;;5080190;28;20062;-85
2024/03/19 05:35:46;;;;;;;99.00;30.05;;;4.30;99.90;;;;;;5073924;28;20096;-82
2024/03/19 05:38:34;;;;;;;173.13;30.58;;;4.50;99.90;;;;;;5081980;28;20028;-82
2024/03/19 05:41:21;;;;;;;291.40;39.58;;;4.80;99.90;;;;;;5085224;28;20036;-82
2024/03/19 05:44:09;;;;;;;270.20;39.30;;;5.10;99.90;;;;;;5079685;28;20044;-85
2024/03/19 05:46:55;;;;;;;236.32;38.97;;;5.20;99.90;;;;;;5078449;28;20044;-83
2024/03/19 05:49:44;;;;;;;227.20;38.92;;;5.30;99.90;;;;;;5077400;28;20054;-82
2024/03/19 05:52:31;;;;;;;226.55;37.95;;;5.30;99.90;;;;;;5085199;28;20054;-83
2024/03/19 05:55:17;;;;;;;246.43;38.80;;;5.30;99.90;;;;;;5075997;28;20050;-81
2024/03/19 05:58:05;;;;;;;195.98;35.45;;;5.30;99.90;;;;;;5080661;28;20036;-81
2024/03/19 06:00:52;;;;;;;159.27;34.92;;;5.30;99.90;;;;;;5081716;28;20062;-83
2024/03/19 06:03:41;;;;;;;211.02;34.42;;;5.30;99.90;;;;;;5069302;28;20084;-80
2024/03/19 06:06:29;;;;;;;206.60;38.88;;;5.30;99.90;;;;;;5079370;28;20046;-80
2024/03/19 06:09:16;;;;;;;208.68;38.65;;;5.30;99.90;;;;;;5083236;28;20402;-81
2024/03/19 06:12:05;;;;;;;194.40;37.30;;;5.30;99.90;;;;;;5076598;28;20052;-81
2024/03/19 06:14:52;;;;;;;185.35;35.00;;;5.30;99.90;;;;;;5075347;28;20059;-81
2024/03/19 06:17:41;;;;;;;160.77;34.10;;;5.40;99.90;;;;;;5079970;28;20058;-81
2024/03/19 06:20:28;;;;;;;181.77;34.55;;;5.40;99.90;;;;;;5078873;28;20044;-81
2024/03/19 06:23:15;;;;;;;105.65;33.40;;;5.50;99.90;;;;;;5080565;28;20088;-81
2024/03/19 06:26:04;;;;;;;123.57;32.95;;;5.50;99.90;;;;;;5054575;28;20043;-82
2024/03/19 06:28:51;;;;;;;90.70;32.03;;;5.50;99.90;;;;;;5064709;28;20047;-83
2024/03/19 06:31:39;;;;;;;121.85;33.92;;;5.60;99.90;;;;;;5090118;28;20048;-84
2024/03/19 06:34:25;;;;;;;85.85;31.85;;;5.70;99.90;;;;;;5079029;28;20124;-80
2024/03/19 06:37:12;;;;;;;80.85;32.33;;;5.70;99.90;;;;;;5097913;28;20509;-81
2024/03/19 06:39:59;;;;;;;84.80;32.88;;;5.70;99.90;;;;;;5093067;28;20097;-83
2024/03/19 06:42:48;;;;;;;79.05;33.30;;;5.80;99.90;;;;;;5081506;28;20040;-84
2024/03/19 06:45:34;;;;;;;107.18;36.60;;;6.10;99.90;;;;;;5095652;28;20047;-84
2024/03/19 06:48:22;;;;;;;88.82;35.70;;;6.20;99.90;;;;;;5083028;28;20044;-83
2024/03/19 06:51:09;;;;;;;111.72;39.45;;;6.10;99.90;;;;;;5081902;28;20119;-85
2024/03/19 06:53:56;;;;;;;108.00;36.15;;;6.10;99.90;;;;;;5086376;28;20040;-84
2024/03/19 06:56:43;;;;;;;167.20;41.03;;;6.00;99.90;;;;;;5086035;28;20066;-84
2024/03/19 06:59:30;;;;;;;142.90;37.28;;;6.10;99.90;;;;;;5077257;28;20123;-84
2024/03/19 07:02:18;;;;;;;92.85;35.00;;;6.20;99.90;;;;;;5087307;28;20378;-83
2024/03/19 07:05:07;;;;;;;117.32;35.38;;;6.30;99.90;;;;;;5091756;28;20111;-83
2024/03/19 07:07:55;;;;;;;176.10;39.25;;;6.30;99.90;;;;;;5099395;28;20134;-85
2024/03/19 07:10:42;;;;;;;108.18;38.30;;;6.40;99.90;;;;;;5071824;28;20077;-82
2024/03/19 07:13:31;;;;;;;78.80;34.83;;;6.50;99.90;;;;;;5070605;28;20040;-81
2024/03/19 07:16:21;;;;;;;80.38;33.88;;;6.70;99.90;;;;;;5072742;28;20508;-84
2024/03/19 07:19:08;;;;;;;74.88;33.40;;;6.60;99.90;;;;;;5072149;28;20052;-83
2024/03/19 07:21:54;;;;;;;73.63;32.25;;;6.70;99.90;;;;;;5086124;28;20537;-81
2024/03/19 07:24:43;;;;;;;71.68;31.20;;;6.80;99.90;;;;;;5088211;28;20032;-79
2024/03/19 07:27:31;;;;;;;43.63;25.40;;;7.30;99.90;;;;;;5092805;28;20429;-79
2024/03/19 07:30:18;;;;;;;39.78;23.63;;;8.00;99.90;;;;;;5108888;28;20291;-80
2024/03/19 07:33:05;;;;;;;32.83;19.90;;;8.80;99.90;;;;;;5089237;28;20703;-79
2024/03/19 07:35:52;;;;;;;30.60;19.23;;;8.60;99.90;;;;;;5083561;28;20040;-82
2024/03/19 07:38:41;;;;;;;30.15;18.25;;;8.30;99.90;;;;;;5075095;28;20036;-80
2024/03/19 07:41:28;;;;;;;29.60;17.45;;;7.90;99.90;;;;;;5085286;28;20056;-82
2024/03/19 07:44:14;;;;;;;27.75;15.65;;;7.70;99.90;;;;;;5083404;28;20059;-80
2024/03/19 07:47:07;;;;;;;21.40;15.27;;;7.90;99.90;;;;;;5086601;28;20051;-82
2024/03/19 07:49:54;;;;;;;27.98;16.70;;;8.30;99.90;;;;;;5090025;28;20048;-81
2024/03/19 07:52:40;;;;;;;17.17;13.27;;;8.80;99.90;;;;;;5075839;28;20401;-80
2024/03/19 07:55:27;;;;;;;14.38;10.57;;;9.50;99.90;;;;;;5091601;28;20055;-83
2024/03/19 07:58:16;;;;;;;12.43;9.13;;;10.30;99.90;;;;;;5091176;28;20040;-83
2024/03/19 08:01:06;;;;;;;9.45;6.95;;;10.40;99.90;;;;;;5086766;28;20454;-83
2024/03/19 08:03:54;;;;;;;4.72;4.30;;;10.60;99.90;;;;;;5103991;28;20051;-83
2024/03/19 08:06:44;;;;;;;4.03;3.63;;;11.40;99.90;;;;;;5083975;28;20075;-83
2024/03/19 08:09:32;;;;;;;3.63;3.03;;;12.10;99.90;;;;;;5067579;28;20052;-82
2024/03/19 08:12:19;;;;;;;6.28;2.90;;;12.50;99.90;;;;;;5094586;28;20048;-82
2024/03/19 08:15:06;;;;;;;3.00;2.70;;;13.00;99.90;;;;;;5095279;28;20124;-82
2024/03/19 08:17:55;;;;;;;3.65;2.50;;;13.60;99.90;;;;;;5072292;28;20276;-82
2024/03/19 08:20:41;;;;;;;2.92;2.58;;;14.30;99.90;;;;;;5080777;28;20176;-84
2024/03/19 08:23:30;;;;;;;3.10;2.80;;;14.90;99.90;;;;;;5073115;28;20048;-83
2024/03/19 08:26:17;;;;;;;5.10;2.60;;;14.50;99.90;;;;;;5072465;28;20126;-84
2024/03/19 08:29:05;;;;;;;3.45;1.90;;;14.40;99.90;;;;;;5074883;28;20044;-81
2024/03/19 08:31:52;;;;;;;2.25;2.05;;;14.60;1.00;;;;;;5087097;28;20052;-82
2024/03/19 08:34:40;;;;;;;3.13;2.55;;;14.50;3.20;;;;;;5093005;28;20047;-80
2024/03/19 08:37:26;;;;;;;2.40;2.20;;;13.40;41.40;;;;;;5091751;28;20048;-82
2024/03/19 08:40:13;;;;;;;2.53;2.33;;;13.20;99.90;;;;;;5089235;28;20044;-83
2024/03/19 08:43:04;;;;;;;2.70;2.50;;;13.40;1.00;;;;;;5065707;28;20479;-83
2024/03/19 08:45:50;;;;;;;3.00;2.50;;;13.80;99.90;;;;;;5071780;28;20040;-83
2024/03/19 08:48:38;;;;;;;4.05;2.40;;;14.20;99.90;;;;;;5076066;28;20058;-83
2024/03/19 08:51:26;;;;;;;2.53;2.30;;;14.40;1.00;;;;;;5080608;28;20044;-84
2024/03/19 08:54:13;;;;;;;2.47;2.15;;;14.70;1.00;;;;;;5092193;28;20454;-85
2024/03/19 08:57:00;;;;;;;3.17;2.30;;;15.20;99.90;;;;;;5088415;28;20054;-80
2024/03/19 08:59:47;;;;;;;2.40;2.20;;;14.90;99.90;;;;;;5094068;28;20048;-82
2024/03/19 09:02:34;;;;;;;2.58;2.38;;;14.70;99.90;;;;;;5087672;28;20040;-80
2024/03/19 09:05:21;;;;;;;4.18;3.20;;;14.30;54.10;;;;;;5071882;28;20131;-80
2024/03/19 09:08:07;;;;;;;3.03;2.72;;;13.60;30.00;;;;;;5073609;28;20040;-81
2024/03/19 09:10:55;;;;;;;4.22;2.80;;;12.90;33.20;;;;;;5091005;28;20040;-82
2024/03/19 09:13:42;;;;;;;4.65;3.00;;;12.40;91.20;;;;;;5089346;28;20054;-83
2024/03/19 09:16:28;;;;;;;3.53;3.22;;;12.40;99.90;;;;;;5090384;28;20028;-79
2024/03/19 09:19:16;;;;;;;3.65;3.03;;;12.50;99.90;;;;;;5087121;28;20393;-83
2024/03/19 09:22:02;;;;;;;4.32;3.00;;;12.50;99.90;;;;;;5085685;28;20096;-83
2024/03/19 09:24:49;;;;;;;3.15;2.85;;;12.90;99.90;;;;;;5064484;28;20044;-81
2024/03/19 09:27:39;;;;;;;2.90;2.60;;;13.40;99.90;;;;;;5081611;28;20055;-83
2024/03/19 09:30:26;;;;;;;3.25;2.03;;;14.50;97.40;;;;;;5084767;28;20028;-80
2024/03/19 09:33:13;;;;;;;3.17;1.80;;;15.90;1.00;;;;;;5093144;28;20047;-81
2024/03/19 09:35:59;;;;;;;2.90;1.55;;;16.90;1.00;;;;;;5062462;28;20064;-82
2024/03/19 09:38:48;;;;;;;2.33;1.95;;;16.30;99.90;;;;;;5072475;28;20394;-81
2024/03/19 09:41:35;;;;;;;3.15;1.88;;;15.00;99.90;;;;;;5071962;28;20044;-82
2024/03/19 09:44:21;;;;;;;3.63;2.20;;;15.20;99.90;;;;;;5058636;28;20040;-82
2024/03/19 09:47:14;;;;;;;3.70;2.10;;;15.50;99.90;;;;;;5070858;28;20051;-83
2024/03/19 09:50:02;;;;;;;3.53;1.80;;;15.50;99.90;;;;;;5058546;28;20048;-81
2024/03/19 09:52:50;;;;;;;3.17;2.03;;;15.80;99.90;;;;;;5071158;28;20078;-82
2024/03/19 09:55:37;;;;;;;4.15;1.88;;;16.50;99.90;;;;;;5057235;28;20044;-82
2024/03/19 09:58:43;;;;;;;2.58;1.92;;;16.70;99.90;;;;;;5072741;28;20047;-83
2024/03/19 10:01:30;;;;;;;1.70;1.60;;;16.80;99.90;;;;;;5070576;28;20794;-83
2024/03/19 10:04:18;;;;;;;2.55;1.98;;;17.90;99.90;;;;;;5080202;28;20206;-81
2024/03/19 10:07:06;;;;;;;2.63;2.00;;;17.80;99.90;;;;;;5094872;28;20040;-82
2024/03/19 10:09:54;;;;;;;1.90;1.80;;;17.30;99.90;;;;;;5079204;28;20040;-79
2024/03/19 10:12:43;;;;;;;3.38;2.00;;;17.60;99.90;;;;;;5070657;28;20508;-83
2024/03/19 10:15:30;;;;;;;2.55;1.55;;;18.10;99.90;;;;;;5077062;28;20052;-79
2024/03/19 10:18:17;;;;;;;2.90;1.60;;;18.90;99.90;;;;;;5078036;28;20048;-83
2024/03/19 10:21:06;;;;;;;1.73;1.63;;;19.50;99.90;;;;;;5070315;28;20048;-82
2024/03/19 10:23:54;;;;;;;4.90;1.90;;;19.90;99.90;;;;;;5058620;28;20040;-82
2024/03/19 10:26:42;;;;;;;1.60;1.50;;;20.20;99.90;;;;;;5071657;28;20416;-79
2024/03/19 10:29:28;;;;;;;3.13;1.75;;;20.90;99.90;;;;;;5070545;28;20056;-81
2024/03/19 10:32:19;;;;;;;4.70;1.42;;;20.20;99.90;;;;;;5072165;28;20062;-81
2024/03/19 10:35:19;;;;;;;4.00;1.30;;;20.50;99.90;;;;;;5066390;28;20052;-79
2024/03/19 10:38:13;;;;;;;2.70;1.40;;;21.20;91.00;;;;;;5069242;28;20407;-81
2024/03/19 10:41:00;;;;;;;1.30;1.20;;;21.50;85.90;;;;;;5057465;28;20048;-82
2024/03/19 10:43:47;;;;;;;2.30;1.20;;;22.50;67.10;;;;;;5070503;28;20047;-82
2024/03/19 10:46:38;;;;;;;2.53;1.02;;;22.30;39.90;;;;;;5056995;28;20044;-82
2024/03/19 10:49:26;;;;;;;1.45;1.20;;;22.50;30.20;;;;;;5075685;28;20485;-82
2024/03/19 10:52:27;;;;;;;1.05;1.05;;;22.10;19.70;;;;;;5076499;28;20047;-81
2024/03/19 10:55:15;;;;;;;2.65;1.10;;;20.90;9.60;;;;;;5075600;28;20048;-82
2024/03/19 10:58:02;;;;;;;2.47;1.38;;;20.60;20.10;;;;;;5079396;28;20050;-78
2024/03/19 11:00:54;;;;;;;3.00;1.25;;;20.50;9.80;;;;;;5070404;28;20045;-79
2024/03/19 11:03:42;;;;;;;3.08;1.50;;;21.20;5.70;;;;;;5079982;28;20050;-77
2024/03/19 11:06:29;;;;;;;1.40;1.27;;;20.40;1.00;;;;;;5083162;28;20036;-83
2024/03/19 11:09:19;;;;;;;1.95;1.33;;;20.10;5.30;;;;;;5068895;28;20527;-78
2024/03/19 11:12:06;;;;;;;2.15;1.40;;;20.10;7.60;;;;;;5087225;28;20055;-81
2024/03/19 11:14:57;;;;;;;1.50;1.40;;;20.40;2.30;;;;;;5080874;28;20048;-83
2024/03/19 11:17:43;;;;;;;3.80;1.23;;;20.70;1.50;;;;;;5084623;28;20055;-82
2024/03/19 11:20:31;;;;;;;1.65;1.05;;;20.70;1.00;;;;;;5073895;28;20101;-80
2024/03/19 11:23:22;;;;;;;1.30;0.85;;;20.50;1.00;;;;;;5077325;28;20088;-82
2024/03/19 11:26:09;;;;;;;2.33;1.30;;;21.30;1.00;;;;;;5064038;28;20044;-81
2024/03/19 11:29:00;;;;;;;1.60;1.10;;;21.60;1.00;;;;;;5066096;28;20073;-83
2024/03/19 11:31:49;;;;;;;1.52;1.20;;;21.70;1.00;;;;;;5084110;28;20028;-83
2024/03/19 11:34:37;;;;;;;0.98;0.80;;;21.70;1.00;;;;;;5083536;28;20036;-81
2024/03/19 11:37:25;;;;;;;1.50;0.90;;;21.60;1.00;;;;;;5077215;28;20055;-83
2024/03/19 11:40:14;;;;;;;3.72;1.50;;;21.60;1.00;;;;;;5068787;28;20044;-83
2024/03/19 11:43:01;;;;;;;2.17;1.00;;;21.80;1.00;;;;;;5062722;28;20500;-81
2024/03/19 11:45:49;;;;;;;4.63;1.05;;;21.80;1.00;;;;;;5067807;28;20040;-80
2024/03/19 11:48:35;;;;;;;2.83;1.10;;;22.40;1.00;;;;;;5072548;28;20055;-82
2024/03/19 11:51:22;;;;;;;1.55;1.10;;;23.00;1.00;;;;;;5076589;28;20050;-80
2024/03/19 11:54:09;;;;;;;1.35;1.08;;;24.30;1.00;;;;;;5080144;28;20356;-82
2024/03/19 11:56:57;;;;;;;1.08;0.90;;;24.20;1.00;;;;;;5075298;28;20127;-80
2024/03/19 11:59:44;;;;;;;1.30;0.90;;;23.20;1.00;;;;;;5074215;28;20042;-82
2024/03/19 12:02:31;;;;;;;1.75;0.90;;;22.60;1.00;;;;;;5076105;28;20044;-82
2024/03/19 12:05:21;;;;;;;0.95;0.85;;;22.30;1.00;;;;;;5065782;28;20050;-80
2024/03/19 12:08:07;;;;;;;2.15;0.80;;;23.50;1.00;;;;;;5087684;28;20040;-80
2024/03/19 12:11:09;;;;;;;0.75;0.75;;;24.10;1.00;;;;;;5085170;28;20044;-80
2024/03/19 12:13:56;;;;;;;1.20;0.60;;;24.80;1.00;;;;;;5070301;28;20500;-80
2024/03/19 12:16:44;;;;;;;2.10;0.80;;;24.40;1.00;;;;;;5070771;28;20119;-81
2024/03/19 12:19:30;;;;;;;0.82;0.63;;;23.10;1.00;;;;;;5081634;28;20046;-84
2024/03/19 12:22:17;;;;;;;3.63;0.80;;;21.50;1.00;;;;;;5072874;28;20062;-82
2024/03/19 12:25:04;;;;;;;1.90;0.70;;;20.80;1.00;;;;;;5074190;28;20040;-80
2024/03/19 12:27:51;;;;;;;2.80;1.33;;;20.20;1.00;;;;;;5073856;28;20040;-79
2024/03/19 12:30:38;;;;;;;1.23;0.88;;;19.80;1.00;;;;;;5082781;28;20100;-81
2024/03/19 12:33:40;;;;;;;3.15;1.00;;;20.20;1.00;;;;;;5058249;28;20854;-80
2024/03/19 12:36:27;;;;;;;3.33;1.50;;;19.90;1.00;;;;;;5064644;28;20044;-81
2024/03/19 12:39:14;;;;;;;2.90;1.23;;;19.50;1.00;;;;;;5067090;28;20036;-80
2024/03/19 12:42:21;;;;;;;2.17;1.30;;;19.00;1.00;;;;;;5064195;28;20584;-80
2024/03/19 12:45:12;;;;;;;1.48;1.15;;;19.00;1.00;;;;;;5060372;28;20123;-80
2024/03/19 12:47:58;;;;;;;1.88;1.20;;;19.00;1.00;;;;;;5078881;28;20142;-81
2024/03/19 12:50:46;;;;;;;3.22;1.27;;;19.90;1.00;;;;;;5072233;28;20131;-79
2024/03/19 12:53:32;;;;;;;2.33;1.35;;;21.10;1.00;;;;;;5072243;28;20066;-78
2024/03/19 12:56:19;;;;;;;2.72;1.40;;;21.20;1.00;;;;;;5071417;28;20139;-82
2024/03/19 12:59:05;;;;;;;4.20;1.50;;;21.40;1.00;;;;;;5072047;28;20505;-80
2024/03/19 13:01:52;;;;;;;2.55;1.45;;;21.10;1.00;;;;;;5072583;28;20042;-80
2024/03/19 13:04:38;;;;;;;2.53;1.80;;;20.40;1.00;;;;;;5086517;28;20048;-80
2024/03/19 13:07:25;;;;;;;4.55;1.38;;;19.90;1.00;;;;;;5076644;28;20093;-82
2024/03/19 13:10:12;;;;;;;3.58;1.60;;;19.50;1.00;;;;;;5070291;28;20047;-82
2024/03/19 13:12:59;;;;;;;1.98;1.50;;;18.60;1.00;;;;;;5068150;28;20054;-79
2024/03/19 13:15:45;;;;;;;3.25;1.88;;;18.10;1.00;;;;;;5071291;28;20048;-81
2024/03/19 13:18:33;;;;;;;3.75;1.80;;;17.60;1.00;;;;;;5078237;28;20050;-78
2024/03/19 13:21:19;;;;;;;9.77;2.15;;;17.60;1.00;;;;;;5068332;28;20048;-80
2024/03/19 13:24:08;;;;;;;3.42;1.80;;;17.40;1.00;;;;;;5076132;28;20696;-82
2024/03/19 13:26:54;;;;;;;2.95;2.25;;;17.10;1.00;;;;;;5071064;28;20048;-83
2024/03/19 13:29:40;;;;;;;4.05;2.20;;;16.90;1.00;;;;;;5072968;28;20047;-82
2024/03/19 13:32:27;;;;;;;4.07;2.22;;;16.60;1.00;;;;;;5058261;28;20048;-82
2024/03/19 13:35:14;;;;;;;3.63;2.03;;;16.40;1.00;;;;;;5071124;28;20044;-82
2024/03/19 13:38:00;;;;;;;4.07;1.98;;;16.50;1.00;;;;;;5073973;28;20407;-82
2024/03/19 13:40:47;;;;;;;5.22;2.17;;;16.30;1.00;;;;;;5085401;28;20123;-83
2024/03/19 13:43:36;;;;;;;4.32;2.03;;;16.50;1.00;;;;;;5058593;28;20513;-81
2024/03/19 13:46:23;;;;;;;2.78;2.08;;;16.60;1.70;;;;;;5045428;28;20047;-83
2024/03/19 13:49:10;;;;;;;3.70;2.05;;;16.70;1.90;;;;;;5073850;28;20106;-83
2024/03/19 13:51:58;;;;;;;6.78;2.05;;;16.70;1.00;;;;;;5068841;28;20050;-82
2024/03/19 13:54:44;;;;;;;2.22;1.55;;;16.80;1.00;;;;;;5071762;28;20123;-83
2024/03/19 13:57:32;;;;;;;4.78;1.80;;;17.70;1.00;;;;;;5075881;28;20050;-75
2024/03/19 14:00:23;;;;;;;1.63;1.52;;;18.50;1.00;;;;;;5080610;28;20135;-82
2024/03/19 14:03:11;;;;;;;3.20;2.00;;;18.90;1.00;;;;;;5061829;28;20048;-82
2024/03/19 14:05:58;;;;;;;3.45;2.10;;;18.50;1.00;;;;;;5072396;28;20500;-83
2024/03/19 14:08:49;;;;;;;6.72;2.00;;;18.50;1.00;;;;;;5076536;28;20062;-81
2024/03/19 14:11:35;;;;;;;2.55;2.03;;;18.40;1.00;;;;;;5069904;28;20054;-82
2024/03/19 14:14:22;;;;;;;4.00;2.00;;;18.30;1.00;;;;;;5071200;28;20050;-80
2024/03/19 14:17:09;;;;;;;3.10;1.58;;;18.40;1.00;;;;;;5058792;28;20101;-82
2024/03/19 14:19:55;;;;;;;4.07;1.85;;;18.80;1.00;;;;;;5071223;28;20043;-84
2024/03/19 14:22:41;;;;;;;5.15;2.20;;;18.80;1.00;;;;;;5071395;28;20050;-79
2024/03/19 14:25:28;;;;;;;2.75;1.75;;;17.90;1.00;;;;;;5057425;28;20123;-81
2024/03/19 14:28:14;;;;;;;4.82;2.17;;;17.50;1.00;;;;;;5070341;28;20044;-80